Time;durP1;ratioP1;P1;durP2;ratioP2;P2;SDS_P1;SDS_P2;PMS_P1;PMS_P2;Temp;Humidity;BMP_temperature;BMP_pressure;BME280_temperature;BME280_humidity;BME280_pressure;Samples;Min_cycle;Max_cycle;Signal;HPM_P1;HPM_P2
2023/01/29 00:00:35;;;;;;;0.10;0.10;;;;;;;;;;5071154;28;20418;-79
2023/01/29 00:03:00;;;;;;;0.25;0.25;;;;;;;;;;5070885;28;20510;-80
2023/01/29 00:05:26;;;;;;;0.10;0.10;;;;;;;;;;5071039;28;20035;-80
2023/01/29 00:07:52;;;;;;;0.20;0.20;;;;;;;;;;5070663;28;20354;-78
2023/01/29 00:10:17;;;;;;;0.30;0.30;;;;;;;;;;5070382;28;20376;-80
2023/01/29 00:12:42;;;;;;;0.10;0.10;;;;;;;;;;5070991;28;20103;-81
2023/01/29 00:15:08;;;;;;;0.10;0.10;;;;;;;;;;5070285;28;20024;-80
2023/01/29 00:17:33;;;;;;;0.00;0.00;;;;;;;;;;5074404;28;20099;-79
2023/01/29 00:19:59;;;;;;;0.30;0.30;;;;;;;;;;5074371;28;20031;-80
2023/01/29 00:22:24;;;;;;;0.10;0.10;;;;;;;;;;5074160;28;20480;-80
2023/01/29 00:24:50;;;;;;;1.25;1.25;;;;;;;;;;5056019;28;20404;-79
2023/01/29 00:27:15;;;;;;;0.13;0.13;;;;;;;;;;5073980;28;20032;-78
2023/01/29 00:29:41;;;;;;;0.13;0.13;;;;;;;;;;5073208;28;20399;-80
2023/01/29 00:32:06;;;;;;;0.93;0.93;;;;;;;;;;5056235;28;20451;-80
2023/01/29 00:34:35;;;;;;;8.87;2.27;;;;;;;;;;5056174;28;20384;-80
2023/01/29 00:37:03;;;;;;;0.20;0.20;;;;;;;;;;5073870;28;20202;-79
2023/01/29 00:39:37;;;;;;;0.10;0.10;;;;;;;;;;5073795;28;20083;-80
2023/01/29 00:44:57;;;;;;;0.10;0.10;;;;;;;;;;5073963;28;20024;-80
2023/01/29 00:47:35;;;;;;;1.00;1.00;;;;;;;;;;5073694;28;20118;-83
2023/01/29 00:50:18;;;;;;;0.10;0.10;;;;;;;;;;5055613;28;20024;-81
2023/01/29 00:52:44;;;;;;;2.15;2.05;;;;;;;;;;5039785;28;20086;-79
2023/01/29 00:55:10;;;;;;;0.10;0.10;;;;;;;;;;5055834;28;20514;-78
2023/01/29 00:57:37;;;;;;;0.10;0.10;;;;;;;;;;5073739;28;20030;-79
2023/01/29 01:00:05;;;;;;;0.32;0.32;;;;;;;;;;5073604;28;20384;-80
2023/01/29 01:05:16;;;;;;;1.23;0.75;;;;;;;;;;5055656;28;20032;-82
2023/01/29 01:07:52;;;;;;;0.88;0.88;;;;;;;;;;5073320;28;20028;-82
2023/01/29 01:10:27;;;;;;;0.10;0.10;;;;;;;;;;5055694;28;20024;-79
2023/01/29 01:12:57;;;;;;;0.17;0.17;;;;;;;;;;5073324;28;20028;-80
2023/01/29 01:15:24;;;;;;;0.40;0.40;;;;;;;;;;5073585;28;20020;-84
2023/01/29 01:17:56;;;;;;;0.10;0.10;;;;;;;;;;5055590;28;20032;-79
2023/01/29 01:20:23;;;;;;;0.00;0.00;;;;;;;;;;5055542;28;20032;-80
2023/01/29 01:22:50;;;;;;;0.10;0.10;;;;;;;;;;5055396;28;20041;-79
2023/01/29 01:25:17;;;;;;;0.30;0.30;;;;;;;;;;5073132;28;20040;-80
2023/01/29 01:27:43;;;;;;;0.10;0.10;;;;;;;;;;5055068;28;20090;-83
2023/01/29 01:30:11;;;;;;;0.10;0.10;;;;;;;;;;5073473;28;20032;-78
2023/01/29 01:32:36;;;;;;;0.28;0.28;;;;;;;;;;5073420;28;20017;-79
2023/01/29 01:35:02;;;;;;;0.25;0.25;;;;;;;;;;5073414;28;20025;-83
2023/01/29 01:37:27;;;;;;;0.10;0.10;;;;;;;;;;5073237;28;20028;-78
2023/01/29 01:39:56;;;;;;;0.10;0.10;;;;;;;;;;5054818;28;20024;-79
2023/01/29 01:42:22;;;;;;;0.50;0.50;;;;;;;;;;5073072;28;20020;-81
2023/01/29 01:44:51;;;;;;;2.17;0.73;;;;;;;;;;5055154;28;20036;-78
2023/01/29 01:47:19;;;;;;;0.00;0.00;;;;;;;;;;5055211;28;20090;-78
2023/01/29 01:49:46;;;;;;;0.10;0.10;;;;;;;;;;5055149;28;20032;-78
2023/01/29 01:52:12;;;;;;;0.20;0.20;;;;;;;;;;5054942;28;20032;-78
2023/01/29 01:54:37;;;;;;;1.02;1.02;;;;;;;;;;5073002;28;20029;-79
2023/01/29 01:57:15;;;;;;;0.13;0.13;;;;;;;;;;5054896;28;20055;-83
2023/01/29 01:59:47;;;;;;;0.10;0.10;;;;;;;;;;5055129;28;20029;-79
2023/01/29 02:10:30;;;;;;;0.10;0.10;;;;;;;;;;5072999;28;20025;-79
2023/01/29 02:12:56;;;;;;;1.65;1.55;;;;;;;;;;5054888;28;20094;-78
2023/01/29 02:15:21;;;;;;;0.10;0.10;;;;;;;;;;5072843;28;20515;-78
2023/01/29 02:17:47;;;;;;;0.40;0.40;;;;;;;;;;5072744;28;20452;-80
2023/01/29 02:20:24;;;;;;;2.38;2.17;;;;;;;;;;5054874;28;20032;-78
2023/01/29 02:23:05;;;;;;;0.00;0.00;;;;;;;;;;5054996;28;20029;-79
2023/01/29 02:25:46;;;;;;;0.10;0.10;;;;;;;;;;5054979;28;20033;-80
2023/01/29 02:28:25;;;;;;;0.05;0.05;;;;;;;;;;5072528;28;20387;-78
2023/01/29 02:30:56;;;;;;;0.55;0.55;;;;;;;;;;5072926;28;20055;-80
2023/01/29 02:33:32;;;;;;;0.10;0.10;;;;;;;;;;5054951;28;20107;-78
2023/01/29 02:36:03;;;;;;;0.15;0.15;;;;;;;;;;5054670;28;20476;-83
2023/01/29 02:38:42;;;;;;;0.03;0.03;;;;;;;;;;5072657;28;20573;-79
2023/01/29 02:41:34;;;;;;;0.10;0.10;;;;;;;;;;5054847;28;20029;-81
2023/01/29 02:44:18;;;;;;;0.52;0.47;;;;;;;;;;5069325;28;20040;-80
2023/01/29 02:46:44;;;;;;;0.20;0.20;;;;;;;;;;5054461;28;20479;-77
2023/01/29 02:49:13;;;;;;;0.13;0.13;;;;;;;;;;5072331;28;20021;-76
2023/01/29 02:51:39;;;;;;;0.45;0.45;;;;;;;;;;5072747;28;20067;-78
2023/01/29 02:54:20;;;;;;;0.00;0.00;;;;;;;;;;5076050;28;20020;-80
2023/01/29 02:56:51;;;;;;;4.03;1.65;;;;;;;;;;5041660;28;20090;-80
2023/01/29 02:59:19;;;;;;;0.00;0.00;;;;;;;;;;5058017;28;20445;-84
2023/01/29 03:01:50;;;;;;;0.10;0.10;;;;;;;;;;5057795;28;20020;-78
2023/01/29 03:04:21;;;;;;;1.58;1.50;;;;;;;;;;5057947;28;20024;-79
2023/01/29 03:06:56;;;;;;;0.10;0.10;;;;;;;;;;5057883;28;20063;-78
2023/01/29 03:09:21;;;;;;;0.15;0.15;;;;;;;;;;5075656;28;20028;-77
2023/01/29 03:11:50;;;;;;;0.10;0.10;;;;;;;;;;5057874;28;20052;-79
2023/01/29 03:15:10;;;;;;;0.88;0.88;;;;;;;;;;5075605;28;20037;-84
2023/01/29 03:17:26;;;;;;;0.10;0.10;;;;;;;;;;5075944;28;20391;-78
2023/01/29 03:19:52;;;;;;;0.10;0.10;;;;;;;;;;5075864;28;20111;-81
2023/01/29 03:22:23;;;;;;;0.10;0.10;;;;;;;;;;5057562;28;20384;-80
2023/01/29 03:33:28;;;;;;;1.95;1.00;;;;;;;;;;5057596;28;20483;-77
2023/01/29 03:35:59;;;;;;;0.10;0.10;;;;;;;;;;5057571;28;20511;-80
2023/01/29 03:38:30;;;;;;;0.00;0.00;;;;;;;;;;5057698;28;20118;-84
2023/01/29 03:41:07;;;;;;;0.30;0.30;;;;;;;;;;5057270;28;20496;-81
2023/01/29 03:43:47;;;;;;;0.00;0.00;;;;;;;;;;5056970;28;20112;-81
2023/01/29 03:46:20;;;;;;;0.00;0.00;;;;;;;;;;5075148;28;20032;-80
2023/01/29 03:48:54;;;;;;;0.35;0.35;;;;;;;;;;5075498;28;20029;-84
2023/01/29 03:51:36;;;;;;;0.40;0.40;;;;;;;;;;5075069;28;20040;-81
2023/01/29 03:54:08;;;;;;;0.15;0.15;;;;;;;;;;5056811;28;20025;-80
2023/01/29 03:56:38;;;;;;;0.70;0.70;;;;;;;;;;5057050;28;20131;-81
2023/01/29 03:59:28;;;;;;;0.10;0.10;;;;;;;;;;5056963;28;20549;-79
2023/01/29 04:02:26;;;;;;;0.35;0.15;;;;;;;;;;5063363;28;20041;-79
2023/01/29 04:04:57;;;;;;;0.17;0.17;;;;;;;;;;5036344;28;20498;-80
2023/01/29 04:07:24;;;;;;;0.10;0.10;;;;;;;;;;5052908;28;20032;-79
2023/01/29 04:10:00;;;;;;;0.55;0.55;;;;;;;;;;5070633;28;20064;-80
2023/01/29 04:12:30;;;;;;;0.00;0.00;;;;;;;;;;5052747;28;20116;-79
2023/01/29 04:14:58;;;;;;;0.10;0.10;;;;;;;;;;5052458;28;20082;-77
2023/01/29 04:17:31;;;;;;;0.10;0.10;;;;;;;;;;5070896;28;20028;-78
2023/01/29 04:20:10;;;;;;;0.10;0.10;;;;;;;;;;5052546;28;20037;-78
2023/01/29 04:22:38;;;;;;;0.00;0.00;;;;;;;;;;5052971;28;20078;-80
2023/01/29 04:25:14;;;;;;;0.10;0.10;;;;;;;;;;5052332;28;20487;-79
2023/01/29 04:27:59;;;;;;;0.20;0.20;;;;;;;;;;5052638;28;20462;-78
2023/01/29 04:30:24;;;;;;;2.80;2.58;;;;;;;;;;5052722;28;20533;-81
2023/01/29 04:33:02;;;;;;;0.10;0.10;;;;;;;;;;5052406;28;20024;-82
2023/01/29 04:35:52;;;;;;;0.00;0.00;;;;;;;;;;5070332;28;20033;-81
2023/01/29 04:38:24;;;;;;;0.25;0.25;;;;;;;;;;5052675;28;20036;-79
2023/01/29 04:41:04;;;;;;;0.10;0.10;;;;;;;;;;5070311;28;20029;-82
2023/01/29 04:43:51;;;;;;;0.45;0.35;;;;;;;;;;5070216;28;20070;-84
2023/01/29 04:46:40;;;;;;;0.17;0.17;;;;;;;;;;5069925;28;20036;-79
2023/01/29 04:49:08;;;;;;;1.10;1.05;;;;;;;;;;5051844;28;20047;-79
2023/01/29 04:51:37;;;;;;;0.10;0.10;;;;;;;;;;5070413;28;20028;-79
2023/01/29 04:54:11;;;;;;;0.22;0.22;;;;;;;;;;5070382;28;20114;-77
2023/01/29 04:56:45;;;;;;;0.00;0.00;;;;;;;;;;5052394;28;20498;-86
2023/01/29 04:59:13;;;;;;;0.10;0.10;;;;;;;;;;5070193;28;20037;-83
2023/01/29 05:01:39;;;;;;;0.10;0.10;;;;;;;;;;5070027;28;20025;-80
2023/01/29 05:04:08;;;;;;;0.10;0.10;;;;;;;;;;5069674;28;20025;-82
2023/01/29 05:06:34;;;;;;;0.10;0.10;;;;;;;;;;5069614;28;20028;-81
2023/01/29 05:09:00;;;;;;;0.00;0.00;;;;;;;;;;5051477;28;20475;-80
2023/01/29 05:11:26;;;;;;;0.10;0.10;;;;;;;;;;5069768;28;20056;-79
2023/01/29 05:13:52;;;;;;;0.00;0.00;;;;;;;;;;5069752;28;20114;-78
2023/01/29 05:16:28;;;;;;;0.05;0.05;;;;;;;;;;5069472;28;20376;-81
2023/01/29 05:18:54;;;;;;;1.00;0.95;;;;;;;;;;5069606;28;20111;-81
2023/01/29 05:21:21;;;;;;;0.00;0.00;;;;;;;;;;5069444;28;20210;-78
2023/01/29 05:24:04;;;;;;;0.63;0.63;;;;;;;;;;5069287;28;20197;-78
2023/01/29 05:29:14;;;;;;;0.63;0.63;;;;;;;;;;5069311;28;20507;-80
2023/01/29 05:31:42;;;;;;;0.00;0.00;;;;;;;;;;5069375;28;20036;-76
2023/01/29 05:34:07;;;;;;;0.20;0.20;;;;;;;;;;5051451;28;20028;-82
2023/01/29 05:36:33;;;;;;;0.40;0.40;;;;;;;;;;5069505;28;20032;-79
2023/01/29 05:38:58;;;;;;;0.10;0.10;;;;;;;;;;5069541;28;20021;-81
2023/01/29 05:41:23;;;;;;;0.00;0.00;;;;;;;;;;5069367;28;20032;-78
2023/01/29 05:43:49;;;;;;;2.17;2.08;;;;;;;;;;5069052;28;20020;-81
2023/01/29 05:46:14;;;;;;;0.05;0.05;;;;;;;;;;5051520;28;20086;-79
2023/01/29 05:48:39;;;;;;;3.00;0.60;;;;;;;;;;5069102;28;20388;-80
2023/01/29 05:51:05;;;;;;;1.15;0.77;;;;;;;;;;5069335;28;20028;-76
2023/01/29 05:53:31;;;;;;;0.30;0.30;;;;;;;;;;5051805;28;20082;-79
2023/01/29 05:55:59;;;;;;;1.35;1.35;;;;;;;;;;5069030;28;20103;-80
2023/01/29 05:58:24;;;;;;;0.28;0.28;;;;;;;;;;5069357;28;20032;-82
2023/01/29 06:00:50;;;;;;;0.13;0.13;;;;;;;;;;5069396;28;20384;-81
2023/01/29 06:03:15;;;;;;;0.20;0.20;;;;;;;;;;5069289;28;20020;-80
2023/01/29 06:05:41;;;;;;;0.43;0.43;;;;;;;;;;5068872;28;20043;-80
2023/01/29 06:08:07;;;;;;;0.22;0.22;;;;;;;;;;5068932;28;20020;-79
2023/01/29 06:10:32;;;;;;;0.10;0.10;;;;;;;;;;5069020;28;20028;-79
2023/01/29 06:12:58;;;;;;;0.10;0.10;;;;;;;;;;5069249;28;20553;-78
2023/01/29 06:15:25;;;;;;;0.00;0.00;;;;;;;;;;5069933;28;20094;-78
2023/01/29 06:17:53;;;;;;;0.28;0.28;;;;;;;;;;5068971;28;20025;-81
2023/01/29 06:20:19;;;;;;;0.10;0.10;;;;;;;;;;5068959;28;20023;-80
2023/01/29 06:22:44;;;;;;;0.00;0.00;;;;;;;;;;5068940;28;20020;-78
2023/01/29 06:25:10;;;;;;;0.10;0.10;;;;;;;;;;5068638;28;20052;-79
2023/01/29 06:27:35;;;;;;;0.10;0.10;;;;;;;;;;5071620;28;20407;-82
2023/01/29 06:30:01;;;;;;;0.00;0.00;;;;;;;;;;5072254;28;20036;-81
2023/01/29 06:32:27;;;;;;;0.65;0.65;;;;;;;;;;5072583;28;20021;-82
2023/01/29 06:34:52;;;;;;;0.10;0.10;;;;;;;;;;5072621;28;20379;-78
2023/01/29 06:37:18;;;;;;;0.10;0.10;;;;;;;;;;5072415;28;20020;-78
2023/01/29 06:39:43;;;;;;;0.00;0.00;;;;;;;;;;5072316;28;20012;-85
2023/01/29 06:42:09;;;;;;;0.00;0.00;;;;;;;;;;5072430;28;20035;-78
2023/01/29 06:44:35;;;;;;;0.10;0.10;;;;;;;;;;5072162;28;20028;-79
2023/01/29 06:47:00;;;;;;;0.30;0.30;;;;;;;;;;5072102;28;20036;-79
2023/01/29 06:49:26;;;;;;;0.10;0.10;;;;;;;;;;5072064;28;20039;-83
2023/01/29 06:51:51;;;;;;;0.10;0.10;;;;;;;;;;5072042;28;20028;-83
2023/01/29 06:54:17;;;;;;;0.00;0.00;;;;;;;;;;5072799;28;20029;-80
2023/01/29 06:56:42;;;;;;;0.10;0.10;;;;;;;;;;5071988;28;20162;-79
2023/01/29 06:59:07;;;;;;;0.00;0.00;;;;;;;;;;5072019;28;20037;-80
2023/01/29 07:01:33;;;;;;;0.10;0.10;;;;;;;;;;5071379;28;20015;-77
2023/01/29 07:03:58;;;;;;;0.10;0.10;;;;;;;;;;5072039;28;20037;-81
2023/01/29 07:06:27;;;;;;;0.00;0.00;;;;;;;;;;5072098;28;20085;-82
2023/01/29 07:08:53;;;;;;;0.03;0.03;;;;;;;;;;5072125;28;20111;-80
2023/01/29 07:11:18;;;;;;;0.10;0.10;;;;;;;;;;5071858;28;20167;-85
2023/01/29 07:13:44;;;;;;;1.75;1.65;;;;;;;;;;5071465;28;20056;-80
2023/01/29 07:16:09;;;;;;;1.17;0.52;;;;;;;;;;5071996;28;20556;-81
2023/01/29 07:18:35;;;;;;;0.10;0.10;;;;;;;;;;5071989;28;20032;-81
2023/01/29 07:21:07;;;;;;;0.10;0.10;;;;;;;;;;5071614;28;20098;-82
2023/01/29 07:23:33;;;;;;;0.10;0.10;;;;;;;;;;5071652;28;20051;-83
2023/01/29 07:26:00;;;;;;;0.35;0.35;;;;;;;;;;5071780;28;20843;-81
2023/01/29 07:28:25;;;;;;;2.83;2.60;;;;;;;;;;5071507;28;20048;-80
2023/01/29 07:30:54;;;;;;;0.68;0.68;;;;;;;;;;5071675;28;20031;-79
2023/01/29 07:33:19;;;;;;;0.10;0.10;;;;;;;;;;5071427;28;20030;-81
2023/01/29 07:35:45;;;;;;;0.10;0.10;;;;;;;;;;5053793;28;20282;-80
2023/01/29 07:38:10;;;;;;;0.10;0.10;;;;;;;;;;5070774;28;20028;-85
2023/01/29 07:40:35;;;;;;;1.23;1.15;;;;;;;;;;5053668;28;20031;-83
2023/01/29 07:43:02;;;;;;;0.10;0.10;;;;;;;;;;5071414;28;20387;-82
2023/01/29 07:45:28;;;;;;;4.40;1.55;;;;;;;;;;5071678;28;20055;-80
2023/01/29 07:47:54;;;;;;;0.10;0.10;;;;;;;;;;5071060;28;20055;-83
2023/01/29 07:50:24;;;;;;;0.63;0.63;;;;;;;;;;5037113;28;20430;-81
2023/01/29 07:52:49;;;;;;;0.10;0.10;;;;;;;;;;5071184;28;20033;-83
2023/01/29 07:55:15;;;;;;;0.30;0.30;;;;;;;;;;5071189;28;20032;-85
2023/01/29 07:57:41;;;;;;;0.13;0.13;;;;;;;;;;5070995;28;20028;-83
2023/01/29 08:00:06;;;;;;;0.20;0.20;;;;;;;;;;5071716;28;20142;-81
2023/01/29 08:02:37;;;;;;;0.20;0.20;;;;;;;;;;5053645;28;20120;-83
2023/01/29 08:05:03;;;;;;;0.10;0.10;;;;;;;;;;5071173;28;20442;-85
2023/01/29 08:07:28;;;;;;;2.88;2.67;;;;;;;;;;5036250;28;20044;-84
2023/01/29 08:09:54;;;;;;;0.63;0.63;;;;;;;;;;5070969;28;20032;-78
2023/01/29 08:12:19;;;;;;;2.28;1.48;;;;;;;;;;5071175;28;20028;-78
2023/01/29 08:14:44;;;;;;;0.10;0.10;;;;;;;;;;5070626;28;20024;-81
2023/01/29 08:17:11;;;;;;;0.10;0.10;;;;;;;;;;5070759;28;20527;-82
2023/01/29 08:19:36;;;;;;;0.95;0.65;;;;;;;;;;5070471;28;20537;-83
2023/01/29 08:22:02;;;;;;;0.30;0.30;;;;;;;;;;5070320;28;20107;-83
2023/01/29 08:24:27;;;;;;;0.10;0.10;;;;;;;;;;5070805;28;20444;-82
2023/01/29 08:26:53;;;;;;;1.45;0.88;;;;;;;;;;5070247;28;20058;-80
2023/01/29 08:29:18;;;;;;;1.17;0.73;;;;;;;;;;5070462;28;20025;-79
2023/01/29 08:31:44;;;;;;;1.90;1.58;;;;;;;;;;5070208;28;20020;-79
2023/01/29 08:34:09;;;;;;;1.02;0.95;;;;;;;;;;5070115;28;20464;-79
2023/01/29 08:36:35;;;;;;;0.15;0.15;;;;;;;;;;5070639;28;20056;-79
2023/01/29 08:39:00;;;;;;;0.10;0.10;;;;;;;;;;5070575;28;20037;-81
2023/01/29 08:41:26;;;;;;;0.10;0.10;;;;;;;;;;5070214;28;20498;-80
2023/01/29 08:43:51;;;;;;;0.55;0.55;;;;;;;;;;5070041;28;20036;-81
2023/01/29 08:46:16;;;;;;;0.10;0.10;;;;;;;;;;5070491;28;20140;-83
2023/01/29 08:48:42;;;;;;;0.50;0.50;;;;;;;;;;5069623;28;20036;-82
2023/01/29 08:51:07;;;;;;;0.20;0.20;;;;;;;;;;5068996;28;20032;-80
2023/01/29 08:53:33;;;;;;;0.75;0.75;;;;;;;;;;5069971;28;20032;-80
2023/01/29 08:55:58;;;;;;;0.55;0.55;;;;;;;;;;5070021;28;20021;-80
2023/01/29 08:58:24;;;;;;;0.20;0.20;;;;;;;;;;5069923;28;20040;-80
2023/01/29 09:00:49;;;;;;;0.10;0.10;;;;;;;;;;5069859;28;20032;-77
2023/01/29 09:03:14;;;;;;;0.10;0.10;;;;;;;;;;5069560;28;20484;-77
2023/01/29 09:05:40;;;;;;;0.10;0.10;;;;;;;;;;5069908;28;20045;-75
2023/01/29 09:08:06;;;;;;;0.10;0.10;;;;;;;;;;5069905;28;20113;-79
2023/01/29 09:10:32;;;;;;;3.22;1.70;;;;;;;;;;5069954;28;20040;-77
2023/01/29 09:12:57;;;;;;;0.55;0.55;;;;;;;;;;5069734;28;20025;-78
2023/01/29 09:15:22;;;;;;;0.22;0.22;;;;;;;;;;5069730;28;20379;-76
2023/01/29 09:17:48;;;;;;;1.90;1.75;;;;;;;;;;5069821;28;20025;-79
2023/01/29 09:20:14;;;;;;;1.45;1.10;;;;;;;;;;5051818;28;20041;-78
2023/01/29 09:22:39;;;;;;;0.30;0.30;;;;;;;;;;5069644;28;20032;-79
2023/01/29 09:25:05;;;;;;;0.10;0.10;;;;;;;;;;5069775;28;20072;-79
2023/01/29 09:27:30;;;;;;;0.10;0.10;;;;;;;;;;5069431;28;20459;-77
2023/01/29 09:29:56;;;;;;;0.10;0.10;;;;;;;;;;5069500;28;20044;-76
2023/01/29 09:32:21;;;;;;;0.50;0.50;;;;;;;;;;5069273;28;20035;-76
2023/01/29 09:34:46;;;;;;;1.90;1.17;;;;;;;;;;5069397;28;20032;-77
2023/01/29 09:37:12;;;;;;;0.55;0.55;;;;;;;;;;5069740;28;20029;-77
2023/01/29 09:39:38;;;;;;;0.10;0.10;;;;;;;;;;5051548;28;20468;-76
2023/01/29 09:42:15;;;;;;;0.10;0.10;;;;;;;;;;5069518;28;20112;-77
2023/01/29 09:44:56;;;;;;;0.10;0.10;;;;;;;;;;5051311;28;20032;-79
2023/01/29 09:47:23;;;;;;;0.10;0.10;;;;;;;;;;5069444;28;20123;-81
2023/01/29 09:49:51;;;;;;;0.10;0.10;;;;;;;;;;5068808;28;20472;-81
2023/01/29 09:52:28;;;;;;;8.43;7.97;;;;;;;;;;5051214;28;20035;-81
2023/01/29 09:55:11;;;;;;;0.10;0.10;;;;;;;;;;5069600;28;20033;-79
2023/01/29 09:57:40;;;;;;;1.27;1.17;;;;;;;;;;5069123;28;20059;-81
2023/01/29 10:00:09;;;;;;;0.28;0.28;;;;;;;;;;5069155;28;20029;-80
2023/01/29 10:02:38;;;;;;;0.20;0.20;;;;;;;;;;5054240;28;20057;-78
2023/01/29 10:05:03;;;;;;;0.10;0.10;;;;;;;;;;5073244;28;20024;-79
2023/01/29 10:07:28;;;;;;;0.10;0.10;;;;;;;;;;5073166;28;20528;-80
2023/01/29 10:10:06;;;;;;;0.10;0.10;;;;;;;;;;5072770;28;20036;-80
2023/01/29 10:12:32;;;;;;;0.10;0.10;;;;;;;;;;5073425;28;20056;-81
2023/01/29 10:15:03;;;;;;;0.55;0.55;;;;;;;;;;5072991;28;20503;-77
2023/01/29 10:17:47;;;;;;;1.33;1.02;;;;;;;;;;5073051;28;20115;-77
2023/01/29 10:20:12;;;;;;;0.10;0.10;;;;;;;;;;5054794;28;20482;-83
2023/01/29 10:22:44;;;;;;;0.28;0.28;;;;;;;;;;5072690;28;20024;-84
2023/01/29 10:25:12;;;;;;;0.10;0.10;;;;;;;;;;5073235;28;20549;-84
2023/01/29 10:27:39;;;;;;;2.38;1.02;;;;;;;;;;5072736;28;20435;-80
2023/01/29 10:30:19;;;;;;;0.10;0.10;;;;;;;;;;5072678;28;20044;-81
2023/01/29 10:32:44;;;;;;;0.80;0.65;;;;;;;;;;5072707;28;20062;-86
2023/01/29 10:35:19;;;;;;;0.20;0.20;;;;;;;;;;5054728;28;20373;-82
2023/01/29 10:37:45;;;;;;;0.10;0.10;;;;;;;;;;5072847;28;20541;-78
2023/01/29 10:40:16;;;;;;;1.80;0.47;;;;;;;;;;5072659;28;20036;-84
2023/01/29 10:42:45;;;;;;;0.10;0.10;;;;;;;;;;5054713;28;20058;-82
2023/01/29 10:45:19;;;;;;;0.70;0.70;;;;;;;;;;5054800;28;20033;-85
2023/01/29 10:47:55;;;;;;;0.32;0.32;;;;;;;;;;5072100;28;20032;-82
2023/01/29 10:50:31;;;;;;;2.42;1.52;;;;;;;;;;5072766;28;20020;-80
2023/01/29 10:53:12;;;;;;;0.43;0.43;;;;;;;;;;5072371;28;20514;-82
2023/01/29 10:55:56;;;;;;;3.40;0.68;;;;;;;;;;5054941;28;20028;-79
2023/01/29 10:58:24;;;;;;;0.30;0.30;;;;;;;;;;5072199;28;20040;-80
2023/01/29 11:00:50;;;;;;;0.17;0.17;;;;;;;;;;5072159;28;20388;-80
2023/01/29 11:03:17;;;;;;;0.50;0.40;;;;;;;;;;5072028;28;20035;-74
2023/01/29 11:05:46;;;;;;;0.38;0.38;;;;;;;;;;5071841;28;20502;-81
2023/01/29 11:08:15;;;;;;;0.60;0.30;;;;;;;;;;5071806;28;20514;-77
2023/01/29 11:11:03;;;;;;;0.33;0.33;;;;;;;;;;5054333;28;20032;-75
2023/01/29 11:13:31;;;;;;;0.10;0.10;;;;;;;;;;5052935;28;20328;-78
2023/01/29 11:15:56;;;;;;;0.30;0.30;;;;;;;;;;5071891;28;20039;-75
2023/01/29 11:18:22;;;;;;;0.10;0.10;;;;;;;;;;5071985;28;20091;-78
2023/01/29 11:20:58;;;;;;;0.10;0.10;;;;;;;;;;5071912;28;20024;-78
2023/01/29 11:23:26;;;;;;;5.30;1.90;;;;;;;;;;5071693;28;20028;-80
2023/01/29 11:25:52;;;;;;;0.13;0.13;;;;;;;;;;5071836;28;20448;-80
2023/01/29 11:28:34;;;;;;;0.10;0.10;;;;;;;;;;5053595;28;20041;-79
2023/01/29 11:30:59;;;;;;;0.80;0.52;;;;;;;;;;5071586;28;20020;-79
2023/01/29 11:33:24;;;;;;;0.20;0.20;;;;;;;;;;5071351;28;20426;-78
2023/01/29 11:35:51;;;;;;;0.65;0.35;;;;;;;;;;5071162;28;20021;-78
2023/01/29 11:38:19;;;;;;;2.22;1.20;;;;;;;;;;5053410;28;20058;-77
2023/01/29 11:40:45;;;;;;;0.75;0.50;;;;;;;;;;5071489;28;20039;-75
2023/01/29 11:43:11;;;;;;;2.33;2.22;;;;;;;;;;5071575;28;20033;-80
2023/01/29 11:45:38;;;;;;;0.52;0.45;;;;;;;;;;5071305;28;20028;-77
2023/01/29 11:48:03;;;;;;;1.52;1.08;;;;;;;;;;5070891;28;20032;-80
2023/01/29 11:50:30;;;;;;;0.10;0.10;;;;;;;;;;5071345;28;20037;-77
2023/01/29 11:52:58;;;;;;;0.10;0.10;;;;;;;;;;5071361;28;20028;-79
2023/01/29 11:55:25;;;;;;;1.48;0.75;;;;;;;;;;5071256;28;20039;-77
2023/01/29 11:58:05;;;;;;;0.52;0.50;;;;;;;;;;5070925;28;20051;-77
2023/01/29 12:00:32;;;;;;;0.60;0.60;;;;;;;;;;5070989;28;20391;-77
2023/01/29 12:03:00;;;;;;;0.20;0.20;;;;;;;;;;5071015;28;20016;-80
2023/01/29 12:05:26;;;;;;;0.20;0.20;;;;;;;;;;5070736;28;20032;-79
2023/01/29 12:07:59;;;;;;;0.10;0.10;;;;;;;;;;5052599;28;20036;-76
2023/01/29 12:10:27;;;;;;;0.60;0.55;;;;;;;;;;5070371;28;20468;-82
2023/01/29 12:13:02;;;;;;;4.03;1.75;;;;;;;;;;5070439;28;20059;-81
2023/01/29 12:15:27;;;;;;;0.13;0.13;;;;;;;;;;5070951;28;20055;-79
2023/01/29 12:18:02;;;;;;;1.02;0.73;;;;;;;;;;5070272;28;20024;-76
2023/01/29 12:20:48;;;;;;;0.10;0.10;;;;;;;;;;5070593;28;20609;-79
2023/01/29 12:23:20;;;;;;;0.10;0.10;;;;;;;;;;5070053;28;20032;-78
2023/01/29 12:25:55;;;;;;;0.75;0.75;;;;;;;;;;5070560;28;20029;-77
2023/01/29 12:28:39;;;;;;;0.10;0.10;;;;;;;;;;5070899;28;20783;-78
2023/01/29 12:31:08;;;;;;;0.28;0.28;;;;;;;;;;5070798;28;20810;-81
2023/01/29 12:33:45;;;;;;;0.10;0.10;;;;;;;;;;5071312;28;20062;-81
2023/01/29 12:36:18;;;;;;;4.78;2.15;;;;;;;;;;5072453;28;20032;-79
2023/01/29 12:38:44;;;;;;;0.10;0.10;;;;;;;;;;5070509;28;20111;-80
2023/01/29 12:41:28;;;;;;;0.20;0.20;;;;;;;;;;5070741;28;20107;-78
2023/01/29 12:44:00;;;;;;;4.63;0.55;;;;;;;;;;5070394;28;20029;-83
2023/01/29 12:46:49;;;;;;;1.10;0.75;;;;;;;;;;5070492;28;20026;-79
2023/01/29 12:49:21;;;;;;;2.15;1.50;;;;;;;;;;5052701;28;20083;-78
2023/01/29 12:51:53;;;;;;;2.58;1.30;;;;;;;;;;5052186;28;20590;-79
2023/01/29 12:54:21;;;;;;;0.10;0.10;;;;;;;;;;5070216;28;20123;-78
2023/01/29 12:56:49;;;;;;;0.15;0.15;;;;;;;;;;5069915;28;20036;-79
2023/01/29 12:59:18;;;;;;;0.40;0.38;;;;;;;;;;5070274;28;20501;-78
2023/01/29 13:01:47;;;;;;;0.98;0.93;;;;;;;;;;5051760;28;20472;-79
2023/01/29 13:04:16;;;;;;;1.27;0.65;;;;;;;;;;5069892;28;20471;-80
2023/01/29 13:06:48;;;;;;;3.63;1.75;;;;;;;;;;5069596;28;20082;-79
2023/01/29 13:09:16;;;;;;;0.73;0.73;;;;;;;;;;5069794;28;20044;-79
2023/01/29 13:11:52;;;;;;;0.75;0.75;;;;;;;;;;5051393;28;20480;-76
2023/01/29 13:14:33;;;;;;;0.10;0.10;;;;;;;;;;5051519;28;20062;-77
2023/01/29 13:17:25;;;;;;;0.15;0.15;;;;;;;;;;5069758;28;20028;-77
2023/01/29 13:19:52;;;;;;;1.17;0.85;;;;;;;;;;5063132;28;20392;-77
2023/01/29 13:22:23;;;;;;;0.20;0.20;;;;;;;;;;5068035;28;20017;-78
2023/01/29 13:24:49;;;;;;;0.10;0.10;;;;;;;;;;5069489;28;20102;-78
2023/01/29 13:27:18;;;;;;;0.10;0.10;;;;;;;;;;5069499;28;20037;-76
2023/01/29 13:29:44;;;;;;;1.77;1.20;;;;;;;;;;5069084;28;20032;-79
2023/01/29 13:32:09;;;;;;;3.60;1.95;;;;;;;;;;5069558;28;20033;-77
2023/01/29 13:34:37;;;;;;;0.47;0.47;;;;;;;;;;5069566;28;20553;-76
2023/01/29 13:37:08;;;;;;;0.20;0.20;;;;;;;;;;5068690;28;20516;-76
2023/01/29 13:39:44;;;;;;;0.10;0.10;;;;;;;;;;5069639;28;20036;-76
2023/01/29 13:42:20;;;;;;;1.02;0.73;;;;;;;;;;5069452;28;20070;-76
2023/01/29 13:44:47;;;;;;;0.52;0.43;;;;;;;;;;5069657;28;20033;-76
2023/01/29 13:47:20;;;;;;;0.70;0.63;;;;;;;;;;5069175;28;20039;-76
2023/01/29 13:49:55;;;;;;;0.73;0.35;;;;;;;;;;5069364;28;20024;-76
2023/01/29 13:52:32;;;;;;;0.28;0.28;;;;;;;;;;5069664;28;20033;-76
2023/01/29 13:55:01;;;;;;;0.10;0.10;;;;;;;;;;5069276;28;20020;-78
2023/01/29 13:57:32;;;;;;;0.10;0.10;;;;;;;;;;5069337;28;20035;-76
2023/01/29 13:59:57;;;;;;;0.50;0.35;;;;;;;;;;5069098;28;20025;-77
2023/01/29 14:02:27;;;;;;;1.08;0.82;;;;;;;;;;5069138;28;20023;-76
2023/01/29 14:05:13;;;;;;;0.10;0.10;;;;;;;;;;5069293;28;20419;-75
2023/01/29 14:07:44;;;;;;;0.55;0.55;;;;;;;;;;5068973;28;20036;-76
2023/01/29 14:10:15;;;;;;;1.45;1.08;;;;;;;;;;5068781;28;20496;-75
2023/01/29 14:12:40;;;;;;;0.10;0.10;;;;;;;;;;5069254;28;20104;-75
2023/01/29 14:15:15;;;;;;;0.10;0.10;;;;;;;;;;5069077;28;20056;-77
2023/01/29 14:17:59;;;;;;;1.05;0.50;;;;;;;;;;5068734;28;20035;-75
2023/01/29 14:20:57;;;;;;;0.30;0.30;;;;;;;;;;5069415;28;20031;-74
2023/01/29 14:23:27;;;;;;;3.40;2.08;;;;;;;;;;5034819;28;20110;-74
2023/01/29 14:25:53;;;;;;;2.38;1.48;;;;;;;;;;5034319;28;20468;-74
2023/01/29 14:28:23;;;;;;;0.10;0.10;;;;;;;;;;5068870;28;20044;-74
2023/01/29 14:30:49;;;;;;;1.85;1.13;;;;;;;;;;5069196;28;20376;-76
2023/01/29 14:33:34;;;;;;;50.80;3.90;;;;;;;;;;5069005;28;20108;-75
2023/01/29 14:36:03;;;;;;;0.75;0.55;;;;;;;;;;5050245;28;20899;-74
2023/01/29 14:38:28;;;;;;;0.80;0.50;;;;;;;;;;5069230;28;20027;-75
2023/01/29 14:41:06;;;;;;;0.10;0.10;;;;;;;;;;5069013;28;20029;-74
2023/01/29 14:43:31;;;;;;;1.95;1.35;;;;;;;;;;5069186;28;20393;-72
2023/01/29 14:46:17;;;;;;;3.05;1.55;;;;;;;;;;5068616;28;20112;-73
2023/01/29 14:48:47;;;;;;;0.10;0.10;;;;;;;;;;5053944;28;20048;-75
2023/01/29 14:51:16;;;;;;;0.73;0.50;;;;;;;;;;5072632;28;20033;-75
2023/01/29 14:53:44;;;;;;;1.15;0.80;;;;;;;;;;5072901;28;20039;-74
2023/01/29 14:56:20;;;;;;;2.47;0.55;;;;;;;;;;5072367;28;20016;-74
2023/01/29 14:58:50;;;;;;;0.10;0.10;;;;;;;;;;5072449;28;20044;-74
2023/01/29 15:01:24;;;;;;;1.40;0.77;;;;;;;;;;5072275;28;20056;-75
2023/01/29 15:03:53;;;;;;;0.60;0.60;;;;;;;;;;5071873;28;20031;-74
2023/01/29 15:06:22;;;;;;;2.15;1.02;;;;;;;;;;5072646;28;20025;-74
2023/01/29 15:08:52;;;;;;;0.10;0.10;;;;;;;;;;5053897;28;20051;-74
2023/01/29 15:11:44;;;;;;;0.30;0.30;;;;;;;;;;5071852;28;20052;-74
2023/01/29 15:14:22;;;;;;;0.17;0.17;;;;;;;;;;5050864;28;20462;-73
2023/01/29 15:17:06;;;;;;;0.20;0.20;;;;;;;;;;5072447;28;20359;-73
2023/01/29 15:19:46;;;;;;;2.42;1.83;;;;;;;;;;5071672;28;20066;-74
2023/01/29 15:22:15;;;;;;;1.35;0.32;;;;;;;;;;5054207;28;20387;-73
2023/01/29 15:24:41;;;;;;;2.08;0.70;;;;;;;;;;5071528;28;20099;-74